Time;durP1;ratioP1;P1;durP2;ratioP2;P2;SDS_P1;SDS_P2;PMS_P1;PMS_P2;Temp;Humidity;BMP_temperature;BMP_pressure;BME280_temperature;BME280_humidity;BME280_pressure;Samples;Min_cycle;Max_cycle;Signal;HPM_P1;HPM_P2
2022/01/16 00:01:01;;;;;;;331.20;170.80;;;;;;;-4.92;100.00;99973.81;105141;1271;72273;-74
2022/01/16 00:06:13;;;;;;;351.10;186.20;;;;;;;-4.85;100.00;99980.64;105158;1271;73181;-76
2022/01/16 00:08:40;;;;;;;363.00;194.10;;;;;;;-4.78;100.00;99972.74;105160;1271;61275;-74
2022/01/16 00:11:07;;;;;;;335.40;190.20;;;;;;;-4.72;100.00;99971.08;105188;1271;61675;-75
2022/01/16 00:13:34;;;;;;;334.20;178.70;;;;;;;-4.67;100.00;99976.85;105159;1271;75411;-75
2022/01/16 00:16:01;;;;;;;339.70;184.10;;;;;;;-4.65;100.00;99976.52;105149;1271;69437;-74
2022/01/16 00:18:39;;;;;;;336.00;177.40;;;;;;;-4.63;100.00;99972.73;105175;1271;61333;-76
2022/01/16 00:21:06;;;;;;;337.10;182.00;;;;;;;-4.62;100.00;99962.51;105276;1271;61400;-75
2022/01/16 00:23:33;;;;;;;343.70;179.30;;;;;;;-4.60;100.00;99948.66;105186;1268;62852;-73
2022/01/16 00:25:59;;;;;;;307.70;165.40;;;;;;;-4.62;100.00;99929.90;105158;1271;76196;-73
2022/01/16 00:28:26;;;;;;;355.40;186.00;;;;;;;-4.65;100.00;99934.73;105110;1271;61310;-73
2022/01/16 00:30:52;;;;;;;355.70;182.30;;;;;;;-4.66;100.00;99946.88;105177;1271;62716;-74
2022/01/16 00:33:19;;;;;;;296.70;163.10;;;;;;;-4.67;100.00;99940.80;105181;1271;61171;-75
2022/01/16 00:35:46;;;;;;;312.80;173.50;;;;;;;-4.69;100.00;99945.98;105224;1271;61285;-74
2022/01/16 00:38:13;;;;;;;312.10;171.50;;;;;;;-4.68;100.00;99918.23;105191;1271;76382;-74
2022/01/16 00:40:39;;;;;;;280.90;153.50;;;;;;;-4.67;100.00;99889.98;105180;1271;70412;-74
2022/01/16 00:43:06;;;;;;;299.30;164.30;;;;;;;-4.64;100.00;99877.37;104970;1271;74289;-74
2022/01/16 00:45:35;;;;;;;282.40;149.30;;;;;;;-4.61;100.00;99915.52;105192;1271;61378;-74
2022/01/16 00:48:04;;;;;;;306.70;164.20;;;;;;;-4.57;100.00;99919.89;105101;1271;62110;-74
2022/01/16 00:50:32;;;;;;;280.50;155.40;;;;;;;-4.54;100.00;99927.03;105164;1271;75390;-74
2022/01/16 00:52:59;;;;;;;316.90;165.40;;;;;;;-4.53;100.00;99943.35;105246;1270;69483;-74
2022/01/16 00:55:26;;;;;;;308.20;162.30;;;;;;;-4.49;100.00;99933.48;105207;1271;73715;-73
2022/01/16 00:57:53;;;;;;;280.10;151.50;;;;;;;-4.45;100.00;99928.34;105207;1271;61362;-74
2022/01/16 01:00:20;;;;;;;280.90;152.60;;;;;;;-4.44;100.00;99893.83;105226;1271;61249;-73
2022/01/16 01:02:47;;;;;;;291.90;159.20;;;;;;;-4.42;100.00;99903.03;105267;1271;75365;-72
2022/01/16 01:05:13;;;;;;;292.10;156.80;;;;;;;-4.45;100.00;99926.44;105265;1271;69369;-74
2022/01/16 01:07:40;;;;;;;305.10;158.90;;;;;;;-4.47;100.00;99921.73;105185;1271;73435;-74
2022/01/16 01:10:08;;;;;;;337.50;175.10;;;;;;;-4.48;100.00;99929.86;104628;1271;396290;-72
2022/01/16 01:12:56;;;;;;;336.80;170.80;;;;;;;-4.50;100.00;99924.64;105104;1271;61228;-75
2022/01/16 01:15:26;;;;;;;352.80;178.40;;;;;;;-4.58;100.00;99873.94;105160;1271;73699;-73
2022/01/16 01:17:53;;;;;;;;;;;;;;;-4.63;100.00;99879.45;105233;1271;69195;-74
2022/01/16 01:20:22;;;;;;;338.40;174.50;;;;;;;-4.66;100.00;99900.40;105303;1271;73163;-73
2022/01/16 01:22:50;;;;;;;312.70;162.20;;;;;;;-4.68;100.00;99875.59;105307;1271;61364;-74
2022/01/16 01:25:18;;;;;;;318.10;165.00;;;;;;;-4.68;100.00;99889.11;105276;1271;61240;-74
2022/01/16 01:27:46;;;;;;;321.30;173.30;;;;;;;-4.71;100.00;99905.90;105266;1271;75396;-72
2022/01/16 01:30:16;;;;;;;321.40;165.70;;;;;;;-4.73;100.00;99878.67;105408;1270;69184;-72
2022/01/16 01:32:44;;;;;;;308.80;160.60;;;;;;;-4.71;100.00;99899.32;105187;1271;72284;-74
2022/01/16 01:35:13;;;;;;;310.80;161.10;;;;;;;-4.75;100.00;99826.30;105416;1271;61406;-75
2022/01/16 01:37:41;;;;;;;298.70;163.10;;;;;;;-4.79;100.00;99763.70;105365;1271;61329;-73
2022/01/16 01:40:11;;;;;;;296.40;157.30;;;;;;;-4.79;100.00;99777.72;105446;1271;75204;-74
2022/01/16 01:42:50;;;;;;;267.00;139.90;;;;;;;-4.80;100.00;99778.07;105526;1271;69456;-75
2022/01/16 01:51:09;;;;;;;258.40;135.80;;;;;;;-4.70;100.00;99779.37;106847;1271;60774;-74
2022/01/16 01:53:37;;;;;;;231.20;127.70;;;;;;;-4.67;100.00;99797.05;107132;1271;75596;-73
2022/01/16 01:56:06;;;;;;;292.60;145.30;;;;;;;-4.67;100.00;99811.27;106530;1271;70172;-73
2022/01/16 01:58:33;;;;;;;307.90;153.80;;;;;;;-4.70;100.00;99805.88;105217;1271;74710;-75
2022/01/16 02:01:00;;;;;;;274.70;144.30;;;;;;;-4.73;100.00;99806.20;105083;1271;61389;-75
2022/01/16 02:05:59;;;;;;;246.20;134.40;;;;;;;-4.71;100.00;99828.94;105241;1271;76130;-74
2022/01/16 02:08:26;;;;;;;258.20;141.10;;;;;;;-4.67;100.00;99814.05;105235;1271;69146;-75
2022/01/16 02:10:53;;;;;;;278.90;144.10;;;;;;;-4.63;100.00;99793.46;105201;1271;73202;-73
2022/01/16 02:13:30;;;;;;;286.50;146.40;;;;;;;-4.61;100.00;99798.31;105211;1271;61326;-75
2022/01/16 02:32:39;;;;;;;221.70;116.70;;;;;;;-4.71;100.00;99827.73;105173;1271;75007;-73
2022/01/16 02:34:59;;;;;;;217.40;110.60;;;;;;;-4.69;100.00;99822.35;105364;1271;70244;-74
2022/01/16 02:37:26;;;;;;;206.90;105.00;;;;;;;-4.69;100.00;99824.95;106387;1268;61262;-74
2022/01/16 02:40:00;;;;;;;203.10;107.70;;;;;;;-4.69;100.00;99822.35;106119;1271;61297;-72
2022/01/16 02:42:29;;;;;;;188.10;104.90;;;;;;;-4.67;100.00;99836.93;105709;1271;61822;-75
2022/01/16 02:45:03;;;;;;;205.70;109.00;;;;;;;-4.67;100.00;99828.61;105205;1271;75420;-74
2022/01/16 02:47:31;;;;;;;187.50;102.10;;;;;;;-4.70;100.00;99821.31;105264;1271;70260;-74
2022/01/16 02:50:00;;;;;;;187.20;102.50;;;;;;;-4.72;100.00;99821.64;105223;1271;71257;-76
2022/01/16 02:52:27;;;;;;;213.50;108.00;;;;;;;-4.74;100.00;99830.13;104999;1271;61288;-73
2022/01/16 02:54:55;;;;;;;216.50;114.50;;;;;;;-4.77;100.00;99826.63;105194;1271;62079;-76
2022/01/16 02:57:22;;;;;;;173.90;99.10;;;;;;;-4.82;100.00;99822.94;105209;1271;75141;-76
2022/01/16 02:59:52;;;;;;;228.30;116.80;;;;;;;-4.86;100.00;99818.23;105216;1271;70333;-72
2022/01/16 03:02:20;;;;;;;;;;;;;;;-4.88;100.00;99822.20;105189;1271;73312;-75
2022/01/16 03:04:47;;;;;;;218.40;116.70;;;;;;;-4.84;100.00;99820.31;105198;1271;61304;-74
2022/01/16 03:07:15;;;;;;;204.90;113.80;;;;;;;-4.82;100.00;99822.23;104995;1271;61873;-74
2022/01/16 03:12:09;;;;;;;218.50;116.80;;;;;;;-4.81;100.00;99815.50;104443;1271;1003030;-77
2022/01/16 03:14:36;;;;;;;206.00;112.00;;;;;;;-4.80;100.00;99815.33;105222;1271;74167;-75
2022/01/16 03:17:03;;;;;;;207.80;118.50;;;;;;;-4.82;100.00;99812.55;105195;1271;61380;-74
2022/01/16 03:22:15;;;;;;;199.30;114.00;;;;;;;-4.79;100.00;99801.31;105162;1271;76148;-75
2022/01/16 03:24:44;;;;;;;215.60;117.10;;;;;;;-4.78;100.00;99805.13;105209;1271;70145;-72
2022/01/16 03:27:14;;;;;;;223.20;117.30;;;;;;;-4.75;100.00;99806.01;105100;1271;74454;-73
2022/01/16 03:29:43;;;;;;;208.10;112.10;;;;;;;-4.70;100.00;99805.53;105231;1271;61368;-76
2022/01/16 03:32:16;;;;;;;197.40;104.40;;;;;;;-4.72;100.00;99799.29;105355;1271;61211;-74
2022/01/16 03:34:44;;;;;;;186.50;101.80;;;;;;;-4.76;100.00;99790.59;105216;1270;74624;-75
2022/01/16 03:37:10;;;;;;;200.70;99.00;;;;;;;-4.79;100.00;99791.27;105074;1271;69333;-74
2022/01/16 03:39:38;;;;;;;176.90;99.70;;;;;;;-4.78;100.00;99784.33;104982;1271;73408;-73
2022/01/16 03:42:05;;;;;;;177.50;98.90;;;;;;;-4.75;100.00;99777.07;105049;1271;61436;-76
2022/01/16 03:44:32;;;;;;;178.90;100.60;;;;;;;-4.75;100.00;99776.20;105105;1271;62239;-72
2022/01/16 03:47:00;;;;;;;179.20;100.20;;;;;;;-4.77;100.00;99770.30;105163;1270;74633;-74
2022/01/16 03:49:29;;;;;;;181.10;101.60;;;;;;;-4.81;100.00;99764.37;105166;1270;70191;-75
2022/01/16 03:51:58;;;;;;;186.20;103.60;;;;;;;-4.83;100.00;99757.42;105219;1270;73130;-74
2022/01/16 03:54:27;;;;;;;198.10;100.30;;;;;;;-4.85;100.00;99759.31;104952;1271;61397;-75
2022/01/16 03:56:55;;;;;;;181.30;99.70;;;;;;;-4.88;100.00;99763.45;105211;1271;61268;-75
2022/01/16 03:59:22;;;;;;;205.50;105.10;;;;;;;-4.90;100.00;99759.80;105132;1271;76451;-73
2022/01/16 04:01:49;;;;;;;179.70;102.20;;;;;;;-4.89;100.00;99762.92;105210;1271;69571;-74
2022/01/16 04:04:16;;;;;;;200.00;106.90;;;;;;;-4.86;100.00;99759.31;104932;1271;73185;-76
2022/01/16 04:06:42;;;;;;;197.40;105.20;;;;;;;-4.86;100.00;99760.34;105201;1271;61335;-74
2022/01/16 04:09:09;;;;;;;194.30;104.40;;;;;;;-4.90;100.00;99759.98;105208;1271;61290;-75
2022/01/16 04:11:42;;;;;;;206.90;107.00;;;;;;;-4.93;100.00;99763.42;105198;1270;76253;-72
2022/01/16 04:14:15;;;;;;;189.20;107.90;;;;;;;-4.94;100.00;99763.77;104946;1271;69221;-73
2022/01/16 04:16:42;;;;;;;197.50;108.20;;;;;;;-4.95;100.00;99766.17;105115;1271;74543;-73
2022/01/16 04:19:08;;;;;;;192.90;104.90;;;;;;;-4.94;100.00;99760.98;105072;1271;61404;-74
2022/01/16 04:21:35;;;;;;;197.10;106.30;;;;;;;-4.96;100.00;99756.45;105250;1271;61277;-73
2022/01/16 04:24:01;;;;;;;197.10;107.60;;;;;;;-4.96;100.00;99756.98;105183;1270;61195;-74
2022/01/16 04:26:28;;;;;;;205.00;112.60;;;;;;;-4.96;100.00;99754.03;105230;1270;61351;-73
2022/01/16 04:28:55;;;;;;;213.60;112.80;;;;;;;-4.97;100.00;99753.51;105179;1271;73169;-77
2022/01/16 04:31:22;;;;;;;215.50;115.40;;;;;;;-4.98;100.00;99752.27;105173;1271;61259;-75
2022/01/16 04:33:49;;;;;;;201.40;107.00;;;;;;;-5.00;100.00;99756.08;105227;1271;61150;-73
2022/01/16 04:36:16;;;;;;;183.40;99.20;;;;;;;-5.03;100.00;99753.63;105185;1271;76104;-73
2022/01/16 04:38:48;;;;;;;196.70;109.20;;;;;;;-5.07;100.00;99745.80;105194;1271;70091;-73
2022/01/16 04:44:03;;;;;;;207.70;111.30;;;;;;;-5.16;100.00;99740.36;105180;1271;61468;-74
2022/01/16 04:46:31;;;;;;;189.70;98.40;;;;;;;-5.16;100.00;99736.20;105207;1271;62021;-74
2022/01/16 04:48:59;;;;;;;200.20;105.40;;;;;;;-5.20;100.00;99731.65;105199;1271;74393;-74
2022/01/16 04:51:29;;;;;;;192.10;107.80;;;;;;;-5.21;100.00;99733.56;105148;1270;70179;-74
2022/01/16 04:53:56;;;;;;;194.60;108.00;;;;;;;-5.20;100.00;99726.98;105207;1271;73309;-74
2022/01/16 04:56:23;;;;;;;195.70;104.90;;;;;;;-5.18;100.00;99734.27;104984;1271;61390;-73
2022/01/16 04:58:50;;;;;;;194.90;104.30;;;;;;;-5.20;100.00;99724.56;105226;1271;61925;-74
2022/01/16 05:01:16;;;;;;;191.20;104.90;;;;;;;-5.24;100.00;99719.15;105179;1271;76198;-74
2022/01/16 05:03:43;;;;;;;193.00;104.70;;;;;;;-5.26;100.00;99709.96;105175;1271;69783;-75
2022/01/16 05:06:10;;;;;;;192.90;106.30;;;;;;;-5.27;100.00;99702.67;105231;1269;74301;-74
2022/01/16 05:08:37;;;;;;;194.90;102.80;;;;;;;-5.26;100.00;99702.34;105195;1271;61294;-75
2022/01/16 05:11:06;;;;;;;189.30;104.40;;;;;;;-5.28;100.00;99702.15;105195;1271;61247;-73
2022/01/16 05:18:50;;;;;;;172.60;98.50;;;;;;;-5.27;100.00;99708.23;105188;1271;73122;-72
2022/01/16 05:21:17;;;;;;;179.20;100.30;;;;;;;-5.26;100.00;99703.73;105206;1271;61315;-74
2022/01/16 05:23:43;;;;;;;177.40;100.40;;;;;;;-5.29;100.00;99700.08;105212;1271;62535;-74
2022/01/16 05:26:12;;;;;;;183.10;100.40;;;;;;;-5.28;100.00;99691.59;105112;1271;75378;-75
2022/01/16 05:28:39;;;;;;;158.00;93.70;;;;;;;-5.30;100.00;99687.94;105357;1271;69253;-74
2022/01/16 05:31:06;;;;;;;157.90;90.10;;;;;;;-5.35;100.00;99686.17;104961;1271;73228;-73
2022/01/16 05:33:32;;;;;;;159.30;90.60;;;;;;;-5.41;100.00;99679.70;105230;1271;61349;-76
2022/01/16 05:35:59;;;;;;;160.70;89.60;;;;;;;-5.48;100.00;99682.94;105153;1271;61308;-76
2022/01/16 05:38:25;;;;;;;156.60;90.90;;;;;;;-5.53;100.00;99682.55;105253;1271;76205;-76
2022/01/16 05:40:52;;;;;;;159.00;91.80;;;;;;;-5.57;100.00;99675.77;105201;1271;70218;-74
2022/01/16 05:43:19;;;;;;;166.90;94.20;;;;;;;-5.64;100.00;99667.73;105215;1270;74377;-75
2022/01/16 05:45:45;;;;;;;165.20;96.10;;;;;;;-5.72;100.00;99667.13;105203;1271;61276;-76
2022/01/16 05:48:12;;;;;;;173.30;100.40;;;;;;;-5.75;100.00;99666.07;105169;1271;61354;-80
2022/01/16 05:50:39;;;;;;;180.70;100.10;;;;;;;-5.78;100.00;99666.39;105204;1270;73293;-77
2022/01/16 05:53:05;;;;;;;180.00;102.50;;;;;;;-5.79;100.00;99667.43;105196;1271;68108;-76
2022/01/16 05:55:36;;;;;;;187.30;101.80;;;;;;;-5.79;100.00;99665.02;105166;1271;74400;-75
2022/01/16 05:58:05;;;;;;;192.70;105.90;;;;;;;-5.81;100.00;99660.32;105213;1271;61354;-73
2022/01/16 06:00:32;;;;;;;167.30;96.90;;;;;;;-5.87;100.00;99657.99;105181;1271;61333;-75
2022/01/16 06:02:59;;;;;;;153.50;87.00;;;;;;;-5.97;100.00;99666.75;105198;1271;76267;-75
2022/01/16 06:05:26;;;;;;;188.30;103.50;;;;;;;-6.11;100.00;99660.55;105184;1270;69292;-74
2022/01/16 06:08:00;;;;;;;174.50;100.90;;;;;;;-6.24;100.00;99663.36;105369;1270;73176;-74
2022/01/16 06:10:27;;;;;;;193.20;108.90;;;;;;;-6.32;100.00;99662.39;105208;1270;61321;-74
2022/01/16 06:12:54;;;;;;;199.40;106.50;;;;;;;-6.36;100.00;99667.88;105174;1271;62702;-73
2022/01/16 06:15:22;;;;;;;187.20;102.00;;;;;;;-6.39;100.00;99669.92;105196;1271;76169;-74
2022/01/16 06:17:49;;;;;;;191.60;107.20;;;;;;;-6.42;100.00;99668.16;105193;1270;69180;-76
2022/01/16 06:20:16;;;;;;;209.70;110.60;;;;;;;-6.44;100.00;99670.90;105112;1271;73201;-73
2022/01/16 06:22:44;;;;;;;194.80;106.90;;;;;;;-6.44;100.00;99662.59;104928;1271;61560;-74
2022/01/16 06:25:12;;;;;;;195.30;111.00;;;;;;;-6.46;100.00;99660.16;105186;1271;61285;-74
2022/01/16 06:27:40;;;;;;;193.80;107.60;;;;;;;-6.49;100.00;99658.90;105313;1271;75313;-74
2022/01/16 06:30:09;;;;;;;179.40;106.50;;;;;;;-6.51;100.00;99646.61;105390;1271;70274;-74
2022/01/16 06:32:36;;;;;;;190.90;111.00;;;;;;;-6.49;100.00;99647.33;105219;1271;74404;-75
2022/01/16 06:35:06;;;;;;;185.10;104.50;;;;;;;-6.46;100.00;99642.02;105146;1271;61282;-73
2022/01/16 06:37:32;;;;;;;180.70;101.90;;;;;;;-6.39;100.00;99638.63;105242;1271;61275;-74
2022/01/16 06:40:00;;;;;;;176.00;101.70;;;;;;;-6.33;100.00;99633.34;104190;1271;1003546;-72
2022/01/16 06:42:26;;;;;;;175.20;101.90;;;;;;;-6.30;100.00;99627.67;104920;1271;68172;-75
2022/01/16 06:44:53;;;;;;;181.00;106.10;;;;;;;-6.27;100.00;99627.52;105119;1271;73253;-74
2022/01/16 06:47:20;;;;;;;172.80;102.90;;;;;;;-6.27;100.00;99624.94;105194;1271;61174;-73
2022/01/16 06:49:46;;;;;;;177.50;103.20;;;;;;;-6.30;100.00;99624.21;105198;1271;61272;-75
2022/01/16 06:52:13;;;;;;;180.20;107.10;;;;;;;-6.32;100.00;99627.13;105233;1271;76624;-74
2022/01/16 06:54:39;;;;;;;189.60;108.10;;;;;;;-6.30;100.00;99626.10;105210;1271;61324;-74
2022/01/16 06:57:08;;;;;;;180.50;105.90;;;;;;;-6.31;100.00;99623.69;105162;1270;74119;-74
2022/01/16 06:59:38;;;;;;;186.20;108.80;;;;;;;-6.28;100.00;99621.13;105191;1271;61406;-74
2022/01/16 07:02:08;;;;;;;182.00;109.60;;;;;;;-6.24;100.00;99621.00;105186;1271;62143;-74
2022/01/16 07:04:34;;;;;;;178.40;106.20;;;;;;;-6.18;100.00;99619.84;104903;1271;75133;-74
2022/01/16 07:07:01;;;;;;;173.10;108.00;;;;;;;-6.11;100.00;99610.05;105164;1271;70115;-75
2022/01/16 07:09:28;;;;;;;174.60;105.50;;;;;;;-6.03;100.00;99611.17;105190;1271;73202;-75
2022/01/16 07:11:54;;;;;;;184.40;108.50;;;;;;;-5.95;100.00;99610.38;105207;1271;61423;-75
2022/01/16 07:14:21;;;;;;;176.10;103.80;;;;;;;-5.92;100.00;99611.23;105220;1271;61345;-75
2022/01/16 07:16:47;;;;;;;191.00;113.60;;;;;;;-5.90;100.00;99610.91;105154;1271;75360;-73
2022/01/16 07:19:14;;;;;;;186.10;108.70;;;;;;;-5.82;100.00;99608.57;105154;1271;61271;-74
2022/01/16 07:21:41;;;;;;;182.40;112.80;;;;;;;-5.72;100.00;99603.45;105220;1271;61304;-74
2022/01/16 07:24:15;;;;;;;182.10;109.50;;;;;;;-5.63;100.00;99603.88;105116;1271;61365;-74
2022/01/16 07:26:45;;;;;;;188.20;113.70;;;;;;;-5.54;100.00;99599.62;105094;1270;61346;-75
2022/01/16 07:29:12;;;;;;;188.10;115.30;;;;;;;-5.47;100.00;99600.02;105165;1271;75217;-74
2022/01/16 07:31:38;;;;;;;196.50;119.40;;;;;;;-5.38;100.00;99597.83;105214;1271;69224;-75
2022/01/16 07:34:06;;;;;;;202.40;122.00;;;;;;;-5.29;100.00;99602.23;105211;1271;74509;-76
2022/01/16 07:36:34;;;;;;;196.00;120.10;;;;;;;-5.22;100.00;99601.21;105202;1271;61672;-75
2022/01/16 07:39:00;;;;;;;190.00;117.20;;;;;;;-5.18;100.00;99599.17;105136;1270;61789;-74
2022/01/16 07:41:27;;;;;;;194.90;122.60;;;;;;;-5.12;100.00;99593.31;105205;1271;75507;-74
2022/01/16 07:43:54;;;;;;;190.60;116.50;;;;;;;-5.01;100.00;99589.39;105380;1271;69387;-74
2022/01/16 07:46:20;;;;;;;186.10;114.30;;;;;;;-4.92;100.00;99586.31;106242;1271;61096;-74
2022/01/16 07:48:47;;;;;;;190.70;116.80;;;;;;;-4.85;100.00;99582.53;106364;1271;61256;-73
2022/01/16 07:51:13;;;;;;;184.20;112.30;;;;;;;-4.79;100.00;99578.58;105735;1271;61179;-74
2022/01/16 07:53:40;;;;;;;181.00;112.60;;;;;;;-4.74;100.00;99577.73;105210;1271;61274;-73
2022/01/16 07:56:06;;;;;;;187.80;116.20;;;;;;;-4.68;100.00;99580.02;105226;1270;61179;-74
2022/01/16 07:58:33;;;;;;;181.70;114.10;;;;;;;-4.61;100.00;99579.85;105260;1271;61308;-74
2022/01/16 08:00:59;;;;;;;185.50;113.40;;;;;;;-4.52;100.00;99584.23;105213;1271;61395;-75
2022/01/16 08:03:26;;;;;;;181.20;114.40;;;;;;;-4.44;100.00;99585.29;105168;1271;61173;-74
2022/01/16 08:05:52;;;;;;;163.90;106.20;;;;;;;-4.35;100.00;99582.70;105167;1271;61006;-74
2022/01/16 08:08:19;;;;;;;168.30;103.80;;;;;;;-4.28;100.00;99572.84;105185;1271;69773;-75
2022/01/16 08:10:46;;;;;;;169.60;105.40;;;;;;;-4.22;100.00;99578.41;105101;1270;73518;-73
2022/01/16 08:13:12;;;;;;;159.60;103.00;;;;;;;-4.14;100.00;99576.85;105134;1271;61298;-73
2022/01/16 08:15:39;;;;;;;155.80;101.70;;;;;;;-4.06;100.00;99576.18;105113;1271;61173;-74
2022/01/16 08:18:06;;;;;;;309.70;190.80;;;;;;;-3.98;100.00;99576.88;105223;1271;75365;-75
2022/01/16 08:20:32;;;;;;;160.20;102.80;;;;;;;-3.90;100.00;99571.68;105217;1271;61292;-74
2022/01/16 08:22:59;;;;;;;146.10;93.80;;;;;;;-3.83;100.00;99561.27;105255;1271;74423;-74
2022/01/16 08:25:26;;;;;;;143.30;93.30;;;;;;;-3.79;100.00;99561.27;105006;1271;61301;-73
2022/01/16 08:27:52;;;;;;;140.40;88.70;;;;;;;-3.74;100.00;99568.03;105261;1270;61977;-75
2022/01/16 08:30:19;;;;;;;140.90;87.70;;;;;;;-3.68;100.00;99560.91;105257;1271;76023;-77
2022/01/16 08:32:46;;;;;;;137.40;85.80;;;;;;;-3.58;100.00;99558.30;105272;1271;70347;-75
2022/01/16 08:35:13;;;;;;;144.20;95.50;;;;;;;-3.50;100.00;99554.30;105243;1271;74396;-75
2022/01/16 08:37:40;;;;;;;143.80;96.50;;;;;;;-3.42;100.00;99546.47;105270;1271;61401;-74
2022/01/16 08:40:07;;;;;;;139.10;89.80;;;;;;;-3.35;100.00;99544.20;105206;1271;61231;-75
2022/01/16 08:42:36;;;;;;;148.00;96.00;;;;;;;-3.25;100.00;99534.27;105336;1271;76358;-75
2022/01/16 08:45:04;;;;;;;146.90;98.40;;;;;;;-3.17;100.00;99532.69;105242;1271;69537;-75
2022/01/16 08:47:31;;;;;;;141.70;98.00;;;;;;;-3.08;100.00;99524.84;105208;1271;73186;-74
2022/01/16 08:50:02;;;;;;;139.40;90.70;;;;;;;-2.99;100.00;99522.71;105281;1270;61303;-75
2022/01/16 08:52:29;;;;;;;132.10;86.80;;;;;;;-2.91;100.00;99519.91;105293;1269;61410;-74
2022/01/16 08:54:56;;;;;;;138.90;89.50;;;;;;;-2.85;100.00;99516.23;105351;1270;75223;-75
2022/01/16 08:57:22;;;;;;;131.40;87.60;;;;;;;-2.78;100.00;99505.08;105532;1271;70387;-73
2022/01/16 08:59:49;;;;;;;122.40;79.40;;;;;;;-2.70;100.00;99500.33;105313;1271;74450;-73
2022/01/16 09:02:15;;;;;;;117.50;76.60;;;;;;;-2.64;100.00;99502.39;105494;1271;61268;-73
2022/01/16 09:04:42;;;;;;;120.40;79.90;;;;;;;-2.57;100.00;99498.88;105523;1271;61382;-72
2022/01/16 09:07:10;;;;;;;113.90;74.30;;;;;;;-2.46;100.00;99497.94;105911;1271;75393;-75
2022/01/16 09:09:37;;;;;;;117.20;75.80;;;;;;;-2.35;100.00;99487.41;105721;1271;70194;-74
2022/01/16 09:12:03;;;;;;;113.90;74.60;;;;;;;-2.26;100.00;99482.84;105708;1271;74267;-73
2022/01/16 09:14:30;;;;;;;112.50;74.30;;;;;;;-2.15;100.00;99473.88;105865;1270;61269;-74
2022/01/16 09:16:56;;;;;;;108.90;75.50;;;;;;;-2.03;100.00;99471.34;106113;1271;61188;-74
2022/01/16 09:19:23;;;;;;;108.10;71.10;;;;;;;-1.92;100.00;99469.85;106207;1271;59924;-73
2022/01/16 09:21:50;;;;;;;123.20;78.80;;;;;;;-1.80;100.00;99460.17;106999;1271;70370;-73
2022/01/16 09:24:16;;;;;;;111.60;71.60;;;;;;;-1.69;100.00;99456.77;107526;1271;61179;-75
2022/01/16 09:26:43;;;;;;;115.30;71.80;;;;;;;-1.60;100.00;99458.75;107438;1271;61243;-76
2022/01/16 09:29:09;;;;;;;101.40;67.70;;;;;;;-1.51;100.00;99452.04;105935;1271;61175;-75
2022/01/16 09:31:36;;;;;;;104.60;65.70;;;;;;;-1.42;100.00;99443.92;105288;1271;61199;-73
2022/01/16 09:34:02;;;;;;;112.00;70.10;;;;;;;-1.36;100.00;99439.67;105322;1271;61477;-74
2022/01/16 09:36:29;;;;;;;106.20;69.50;;;;;;;-1.25;100.00;99438.16;105303;1271;73173;-73
2022/01/16 09:38:55;;;;;;;107.90;68.60;;;;;;;-1.15;100.00;99434.70;105350;1271;61180;-73
2022/01/16 09:41:23;;;;;;;107.50;68.20;;;;;;;-1.08;100.00;99435.50;105304;1271;62048;-74
2022/01/16 09:43:50;;;;;;;102.60;64.30;;;;;;;-1.06;100.00;99435.29;105274;1270;75968;-75
2022/01/16 09:46:16;;;;;;;99.20;66.10;;;;;;;-1.02;100.00;99428.96;105279;1271;68716;-74
2022/01/16 09:48:43;;;;;;;107.80;68.80;;;;;;;-0.97;100.00;99426.12;105216;1271;74624;-75
2022/01/16 09:51:10;;;;;;;125.60;78.00;;;;;;;-0.89;100.00;99423.39;105231;1270;61287;-75
2022/01/16 09:53:41;;;;;;;124.40;80.70;;;;;;;-0.80;100.00;99422.92;105028;1271;61192;-75
2022/01/16 09:56:09;;;;;;;126.60;79.10;;;;;;;-0.72;100.00;99417.23;105278;1271;74121;-76
2022/01/16 09:58:37;;;;;;;117.20;79.00;;;;;;;-0.64;100.00;99416.77;105290;1271;68171;-73
2022/01/16 10:01:03;;;;;;;117.10;76.20;;;;;;;-0.55;100.00;99418.88;104928;1272;70538;-74
2022/01/16 10:03:34;;;;;;;121.50;77.40;;;;;;;-0.48;100.00;99413.88;105221;1271;61425;-73
2022/01/16 10:06:23;;;;;;;123.90;77.30;;;;;;;-0.40;100.00;99408.52;105240;1271;61259;-75
2022/01/16 10:08:52;;;;;;;120.20;73.90;;;;;;;-0.32;100.00;99401.06;105232;1271;75618;-74
2022/01/16 10:11:27;;;;;;;121.50;79.10;;;;;;;-0.27;100.00;99392.61;105356;1271;69474;-74
2022/01/16 10:14:02;;;;;;;121.80;77.20;;;;;;;-0.20;100.00;99382.55;105276;1271;73361;-74
2022/01/16 10:16:38;;;;;;;118.50;74.80;;;;;;;-0.15;100.00;99376.67;104347;1271;1003043;-75
2022/01/16 10:19:22;;;;;;;112.10;70.90;;;;;;;-0.11;100.00;99376.09;105208;1271;62285;-76
2022/01/16 10:21:50;;;;;;;115.10;73.10;;;;;;;-0.06;100.00;99370.59;105278;1271;76241;-75
2022/01/16 10:24:21;;;;;;;116.00;73.80;;;;;;;0.01;100.00;99368.71;105432;1271;69280;-75
2022/01/16 10:27:01;;;;;;;116.50;74.40;;;;;;;0.09;100.00;99356.34;105254;1271;74331;-74
2022/01/16 10:29:28;;;;;;;103.40;62.90;;;;;;;0.19;100.00;99352.66;105240;1271;61290;-74
2022/01/16 10:32:17;;;;;;;114.60;70.60;;;;;;;0.27;100.00;99350.41;105276;1271;61150;-76
2022/01/16 10:34:46;;;;;;;105.30;66.50;;;;;;;0.33;100.00;99352.73;105260;1270;76196;-73
2022/01/16 10:37:18;;;;;;;107.00;64.30;;;;;;;0.40;100.00;99352.77;105454;1271;69102;-74
2022/01/16 10:39:57;;;;;;;100.20;61.20;;;;;;;0.48;100.00;99350.34;105239;1270;73339;-74
2022/01/16 10:42:25;;;;;;;99.10;59.90;;;;;;;0.56;100.00;99351.21;105360;1271;61378;-76
2022/01/16 10:45:15;;;;;;;99.50;61.30;;;;;;;0.61;100.00;99347.64;105239;1271;61846;-73
2022/01/16 10:47:44;;;;;;;101.50;59.20;;;;;;;0.64;100.00;99341.09;105234;1271;74073;-75
2022/01/16 10:50:23;;;;;;;98.50;59.00;;;;;;;0.72;100.00;99344.43;105237;1271;70440;-74
2022/01/16 10:52:59;;;;;;;98.70;59.70;;;;;;;0.77;100.00;99337.12;105301;1271;73148;-74
2022/01/16 10:55:47;;;;;;;105.00;62.10;;;;;;;0.84;100.00;99328.25;105252;1271;61176;-73
2022/01/16 10:58:24;;;;;;;98.90;60.10;;;;;;;0.91;99.97;99330.03;105230;1271;61248;-74
2022/01/16 11:01:00;;;;;;;108.30;62.60;;;;;;;1.02;100.00;99327.48;105310;1271;75420;-74
2022/01/16 11:03:29;;;;;;;109.20;60.90;;;;;;;1.12;100.00;99318.33;105306;1271;70356;-74
2022/01/16 11:05:56;;;;;;;102.40;59.90;;;;;;;1.16;99.46;99319.13;105158;1271;74417;-74
2022/01/16 11:08:25;;;;;;;102.80;61.20;;;;;;;1.21;99.79;99316.54;105196;1271;61333;-75
2022/01/16 11:10:56;;;;;;;116.90;65.70;;;;;;;1.31;99.68;99307.38;105376;1271;61352;-76
2022/01/16 11:13:30;;;;;;;105.20;63.30;;;;;;;1.38;99.66;99299.86;105234;1271;75655;-74
2022/01/16 11:16:01;;;;;;;114.50;66.60;;;;;;;1.41;99.63;99297.16;105309;1271;70414;-77
2022/01/16 11:18:28;;;;;;;111.60;66.00;;;;;;;1.47;99.75;99293.67;105212;1271;73398;-74
2022/01/16 11:23:33;;;;;;;124.50;71.20;;;;;;;1.63;99.49;99293.09;104914;1275;61304;-74
2022/01/16 11:26:05;;;;;;;119.90;66.20;;;;;;;1.70;99.02;99291.52;105101;1275;75417;-74
2022/01/16 11:28:34;;;;;;;129.20;69.20;;;;;;;1.75;98.83;99288.40;104915;1277;68554;-76
2022/01/16 11:31:04;;;;;;;122.60;67.50;;;;;;;1.81;98.80;99287.73;104911;1275;74228;-75
2022/01/16 11:33:35;;;;;;;122.60;65.30;;;;;;;1.90;98.93;99287.30;104995;1277;61556;-74
2022/01/16 11:36:06;;;;;;;133.90;70.10;;;;;;;2.02;98.81;99287.68;104968;1275;61329;-76
2022/01/16 11:38:52;;;;;;;128.70;66.60;;;;;;;2.18;98.66;99288.81;105098;1275;75143;-74
2022/01/16 11:41:27;;;;;;;120.50;65.20;;;;;;;2.34;98.35;99288.17;104564;1277;70181;-74